Impacts TAF Board
For situational awareness. Not to be used for flight planning purposes.
IDs:

KMSY - New Orleans/Armstron, LA, US

Issued at 2341 UTC 19 Sep 2020
Updated at 0412 UTC 20 Sep 2020
Potential Impact None Slight Moderate High
Time<<21/05Z 21/06Z 21/07Z 21/08Z 21/09Z 21/10Z 21/11Z 21/12Z 21/13Z 21/14Z 21/15Z 21/16Z 21/17Z
Type PRVL
VIS 3
CIG 10
Cover OVC
FltCat MVFR
WX RA
WDir 80
WSpd 18
WGst 30
R01/19
XWnd -16 0 0 0 0 0 0 0 0 0 0 0 0
XGst -27 -- -- -- -- -- -- -- -- -- -- -- --
HWnd 8 0 0 0 0 0 0 0 0 0 0 0 0
HGst 13 -- -- -- -- -- -- -- -- -- -- -- --
R10/28
XWnd 8 0 0 0 0 0 0 0 0 0 0 0 0
XGst 13 -- -- -- -- -- -- -- -- -- -- -- --
HWnd 16 0 0 0 0 0 0 0 0 0 0 0 0
HGst 27 -- -- -- -- -- -- -- -- -- -- -- --
Raw TAF
KMSY 192341Z 2000/2106 07015G23KT 6SM -RA BR BKN015 OVC060
  FM200800 07017G25KT 4SM RA BKN008 OVC015
  FM201200 08018G30KT 3SM RA SCT008 OVC010


METAR Board
Radar Display
Forecast Discussion
For situational awareness. Not to be used for flight planning purposes.